sensor_id;sensor_type;location;lat;lon;timestamp;P1;durP1;ratioP1;P2;durP2;ratioP2
33740;SDS011;20065;48.380;10.892;2023-01-28T00:01:30;43.63;;;21.73;;
33740;SDS011;20065;48.380;10.892;2023-01-28T00:04:17;39.67;;;21.05;;
33740;SDS011;20065;48.380;10.892;2023-01-28T00:07:03;39.40;;;20.10;;
33740;SDS011;20065;48.380;10.892;2023-01-28T00:09:49;37.67;;;19.83;;
33740;SDS011;20065;48.380;10.892;2023-01-28T00:12:35;40.22;;;20.42;;
33740;SDS011;20065;48.380;10.892;2023-01-28T00:15:22;43.45;;;21.00;;
33740;SDS011;20065;48.380;10.892;2023-01-28T00:18:09;37.03;;;19.55;;
33740;SDS011;20065;48.380;10.892;2023-01-28T00:23:46;39.90;;;20.08;;
33740;SDS011;20065;48.380;10.892;2023-01-28T00:26:36;40.13;;;20.17;;
33740;SDS011;20065;48.380;10.892;2023-01-28T00:29:22;37.10;;;18.35;;
33740;SDS011;20065;48.380;10.892;2023-01-28T00:32:08;37.28;;;19.75;;
33740;SDS011;20065;48.380;10.892;2023-01-28T00:34:55;34.85;;;19.58;;
33740;SDS011;20065;48.380;10.892;2023-01-28T00:37:43;38.65;;;17.75;;
33740;SDS011;20065;48.380;10.892;2023-01-28T00:40:31;34.88;;;17.67;;
33740;SDS011;20065;48.380;10.892;2023-01-28T00:43:17;40.97;;;19.73;;
33740;SDS011;20065;48.380;10.892;2023-01-28T00:46:04;41.30;;;20.05;;
33740;SDS011;20065;48.380;10.892;2023-01-28T00:48:51;37.80;;;19.00;;
33740;SDS011;20065;48.380;10.892;2023-01-28T00:51:38;37.58;;;18.92;;
33740;SDS011;20065;48.380;10.892;2023-01-28T00:54:24;35.47;;;18.60;;
33740;SDS011;20065;48.380;10.892;2023-01-28T00:57:11;38.95;;;18.45;;
33740;SDS011;20065;48.380;10.892;2023-01-28T00:59:57;43.97;;;20.55;;
33740;SDS011;20065;48.380;10.892;2023-01-28T01:02:44;35.45;;;19.25;;
33740;SDS011;20065;48.380;10.892;2023-01-28T01:05:30;41.33;;;18.17;;
33740;SDS011;20065;48.380;10.892;2023-01-28T01:08:19;35.72;;;18.38;;
33740;SDS011;20065;48.380;10.892;2023-01-28T01:11:15;38.45;;;19.52;;
33740;SDS011;20065;48.380;10.892;2023-01-28T01:14:02;35.15;;;17.77;;
33740;SDS011;20065;48.380;10.892;2023-01-28T01:16:49;39.15;;;19.02;;
33740;SDS011;20065;48.380;10.892;2023-01-28T01:19:37;42.10;;;19.92;;
33740;SDS011;20065;48.380;10.892;2023-01-28T01:22:24;42.08;;;19.92;;
33740;SDS011;20065;48.380;10.892;2023-01-28T01:25:10;42.95;;;19.73;;
33740;SDS011;20065;48.380;10.892;2023-01-28T01:27:59;41.72;;;20.55;;
33740;SDS011;20065;48.380;10.892;2023-01-28T01:30:46;35.05;;;18.27;;
33740;SDS011;20065;48.380;10.892;2023-01-28T01:33:33;39.42;;;19.45;;
33740;SDS011;20065;48.380;10.892;2023-01-28T01:36:19;34.38;;;18.15;;
33740;SDS011;20065;48.380;10.892;2023-01-28T01:39:06;37.60;;;19.40;;
33740;SDS011;20065;48.380;10.892;2023-01-28T01:41:55;33.95;;;18.75;;
33740;SDS011;20065;48.380;10.892;2023-01-28T01:44:53;36.25;;;19.77;;
33740;SDS011;20065;48.380;10.892;2023-01-28T01:47:54;36.65;;;19.90;;
33740;SDS011;20065;48.380;10.892;2023-01-28T01:50:55;32.70;;;18.35;;
33740;SDS011;20065;48.380;10.892;2023-01-28T01:53:53;41.35;;;19.45;;
33740;SDS011;20065;48.380;10.892;2023-01-28T01:56:42;34.50;;;18.73;;
33740;SDS011;20065;48.380;10.892;2023-01-28T01:59:32;37.88;;;19.08;;
33740;SDS011;20065;48.380;10.892;2023-01-28T02:02:20;36.30;;;18.35;;
33740;SDS011;20065;48.380;10.892;2023-01-28T02:05:08;38.83;;;18.13;;
33740;SDS011;20065;48.380;10.892;2023-01-28T02:07:56;36.92;;;18.42;;
33740;SDS011;20065;48.380;10.892;2023-01-28T02:11:04;32.65;;;16.27;;
33740;SDS011;20065;48.380;10.892;2023-01-28T02:13:52;35.92;;;17.30;;
33740;SDS011;20065;48.380;10.892;2023-01-28T02:16:40;35.97;;;16.67;;
33740;SDS011;20065;48.380;10.892;2023-01-28T02:19:30;33.38;;;18.08;;
33740;SDS011;20065;48.380;10.892;2023-01-28T02:22:47;39.60;;;20.48;;
33740;SDS011;20065;48.380;10.892;2023-01-28T02:25:56;37.10;;;18.90;;
33740;SDS011;20065;48.380;10.892;2023-01-28T02:32:03;36.33;;;17.65;;
33740;SDS011;20065;48.380;10.892;2023-01-28T02:37:45;36.83;;;18.30;;
33740;SDS011;20065;48.380;10.892;2023-01-28T02:40:38;32.85;;;17.48;;
33740;SDS011;20065;48.380;10.892;2023-01-28T02:43:47;32.90;;;17.00;;
33740;SDS011;20065;48.380;10.892;2023-01-28T02:46:35;36.05;;;18.13;;
33740;SDS011;20065;48.380;10.892;2023-01-28T02:49:42;44.33;;;18.55;;
33740;SDS011;20065;48.380;10.892;2023-01-28T03:05:09;33.38;;;17.70;;
33740;SDS011;20065;48.380;10.892;2023-01-28T03:08:00;34.63;;;18.27;;
33740;SDS011;20065;48.380;10.892;2023-01-28T03:11:09;40.63;;;19.42;;
33740;SDS011;20065;48.380;10.892;2023-01-28T03:14:13;33.72;;;17.55;;
33740;SDS011;20065;48.380;10.892;2023-01-28T03:17:31;34.30;;;17.13;;
33740;SDS011;20065;48.380;10.892;2023-01-28T03:24:10;34.85;;;17.45;;
33740;SDS011;20065;48.380;10.892;2023-01-28T03:27:36;33.88;;;17.55;;
33740;SDS011;20065;48.380;10.892;2023-01-28T03:30:59;32.25;;;17.45;;
33740;SDS011;20065;48.380;10.892;2023-01-28T03:34:11;31.13;;;15.90;;
33740;SDS011;20065;48.380;10.892;2023-01-28T03:37:17;37.58;;;16.85;;
33740;SDS011;20065;48.380;10.892;2023-01-28T03:40:11;36.13;;;16.65;;
33740;SDS011;20065;48.380;10.892;2023-01-28T03:42:57;29.98;;;16.20;;
33740;SDS011;20065;48.380;10.892;2023-01-28T03:45:52;33.75;;;16.50;;
33740;SDS011;20065;48.380;10.892;2023-01-28T03:48:40;30.10;;;15.25;;
33740;SDS011;20065;48.380;10.892;2023-01-28T03:51:29;33.10;;;16.15;;
33740;SDS011;20065;48.380;10.892;2023-01-28T03:54:15;32.45;;;16.52;;
33740;SDS011;20065;48.380;10.892;2023-01-28T03:57:02;30.38;;;16.92;;
33740;SDS011;20065;48.380;10.892;2023-01-28T03:59:50;31.90;;;16.55;;
33740;SDS011;20065;48.380;10.892;2023-01-28T04:02:37;31.95;;;14.90;;
33740;SDS011;20065;48.380;10.892;2023-01-28T04:05:24;30.27;;;15.27;;
33740;SDS011;20065;48.380;10.892;2023-01-28T04:08:12;31.92;;;15.88;;
33740;SDS011;20065;48.380;10.892;2023-01-28T04:11:21;26.77;;;13.80;;
33740;SDS011;20065;48.380;10.892;2023-01-28T04:14:10;30.50;;;15.63;;
33740;SDS011;20065;48.380;10.892;2023-01-28T04:17:08;26.55;;;14.25;;
33740;SDS011;20065;48.380;10.892;2023-01-28T04:19:55;29.17;;;15.15;;
33740;SDS011;20065;48.380;10.892;2023-01-28T04:22:41;27.92;;;14.63;;
33740;SDS011;20065;48.380;10.892;2023-01-28T04:25:30;29.65;;;15.13;;
33740;SDS011;20065;48.380;10.892;2023-01-28T04:28:17;31.13;;;15.82;;
33740;SDS011;20065;48.380;10.892;2023-01-28T04:31:03;30.25;;;15.93;;
33740;SDS011;20065;48.380;10.892;2023-01-28T04:34:03;32.95;;;16.13;;
33740;SDS011;20065;48.380;10.892;2023-01-28T04:37:08;28.58;;;15.73;;
33740;SDS011;20065;48.380;10.892;2023-01-28T04:40:13;26.67;;;15.00;;
33740;SDS011;20065;48.380;10.892;2023-01-28T04:43:14;29.73;;;15.30;;
33740;SDS011;20065;48.380;10.892;2023-01-28T04:46:09;27.48;;;14.63;;
33740;SDS011;20065;48.380;10.892;2023-01-28T04:49:02;32.88;;;15.60;;
33740;SDS011;20065;48.380;10.892;2023-01-28T04:52:14;28.85;;;14.55;;
33740;SDS011;20065;48.380;10.892;2023-01-28T04:55:23;31.88;;;15.00;;
33740;SDS011;20065;48.380;10.892;2023-01-28T04:58:09;27.98;;;14.55;;
33740;SDS011;20065;48.380;10.892;2023-01-28T05:00:57;30.60;;;15.40;;
33740;SDS011;20065;48.380;10.892;2023-01-28T05:03:44;25.60;;;13.52;;
33740;SDS011;20065;48.380;10.892;2023-01-28T05:06:39;27.75;;;14.65;;
33740;SDS011;20065;48.380;10.892;2023-01-28T05:09:32;28.77;;;14.48;;
33740;SDS011;20065;48.380;10.892;2023-01-28T05:12:19;31.48;;;14.30;;
33740;SDS011;20065;48.380;10.892;2023-01-28T05:15:06;30.80;;;13.93;;
33740;SDS011;20065;48.380;10.892;2023-01-28T05:17:53;31.80;;;15.30;;
33740;SDS011;20065;48.380;10.892;2023-01-28T05:20:42;27.13;;;14.52;;
33740;SDS011;20065;48.380;10.892;2023-01-28T05:23:28;30.40;;;15.13;;
33740;SDS011;20065;48.380;10.892;2023-01-28T05:26:17;28.23;;;15.35;;
33740;SDS011;20065;48.380;10.892;2023-01-28T05:29:04;28.17;;;15.85;;
33740;SDS011;20065;48.380;10.892;2023-01-28T05:31:51;29.05;;;15.23;;
33740;SDS011;20065;48.380;10.892;2023-01-28T05:34:38;29.95;;;15.70;;
33740;SDS011;20065;48.380;10.892;2023-01-28T05:37:30;25.67;;;14.32;;
33740;SDS011;20065;48.380;10.892;2023-01-28T05:40:17;31.80;;;15.38;;
33740;SDS011;20065;48.380;10.892;2023-01-28T05:43:03;26.42;;;13.55;;
33740;SDS011;20065;48.380;10.892;2023-01-28T05:45:58;25.95;;;14.32;;
33740;SDS011;20065;48.380;10.892;2023-01-28T05:49:02;31.00;;;14.73;;
33740;SDS011;20065;48.380;10.892;2023-01-28T05:52:18;22.05;;;14.70;;
33740;SDS011;20065;48.380;10.892;2023-01-28T05:55:05;30.73;;;16.08;;
33740;SDS011;20065;48.380;10.892;2023-01-28T05:57:52;26.60;;;13.93;;
33740;SDS011;20065;48.380;10.892;2023-01-28T06:00:41;26.63;;;14.73;;
33740;SDS011;20065;48.380;10.892;2023-01-28T06:03:27;28.88;;;15.85;;
33740;SDS011;20065;48.380;10.892;2023-01-28T06:06:15;30.13;;;14.88;;
33740;SDS011;20065;48.380;10.892;2023-01-28T06:09:01;33.22;;;14.88;;
33740;SDS011;20065;48.380;10.892;2023-01-28T06:11:49;25.38;;;14.38;;
33740;SDS011;20065;48.380;10.892;2023-01-28T06:14:36;24.83;;;14.38;;
33740;SDS011;20065;48.380;10.892;2023-01-28T06:17:45;31.40;;;14.10;;
33740;SDS011;20065;48.380;10.892;2023-01-28T06:20:45;30.10;;;15.77;;
33740;SDS011;20065;48.380;10.892;2023-01-28T06:23:34;26.77;;;15.10;;
33740;SDS011;20065;48.380;10.892;2023-01-28T06:26:22;22.73;;;13.65;;
33740;SDS011;20065;48.380;10.892;2023-01-28T06:29:10;26.80;;;14.93;;
33740;SDS011;20065;48.380;10.892;2023-01-28T06:31:56;28.33;;;14.55;;
33740;SDS011;20065;48.380;10.892;2023-01-28T06:34:42;26.48;;;13.35;;
33740;SDS011;20065;48.380;10.892;2023-01-28T06:37:28;24.60;;;14.43;;
33740;SDS011;20065;48.380;10.892;2023-01-28T06:40:15;24.48;;;13.70;;
33740;SDS011;20065;48.380;10.892;2023-01-28T06:43:02;23.95;;;13.50;;
33740;SDS011;20065;48.380;10.892;2023-01-28T06:45:48;26.30;;;14.15;;
33740;SDS011;20065;48.380;10.892;2023-01-28T06:48:35;26.25;;;14.15;;
33740;SDS011;20065;48.380;10.892;2023-01-28T06:51:21;29.23;;;14.80;;
33740;SDS011;20065;48.380;10.892;2023-01-28T06:54:07;23.80;;;13.88;;
33740;SDS011;20065;48.380;10.892;2023-01-28T06:56:53;27.20;;;13.57;;
33740;SDS011;20065;48.380;10.892;2023-01-28T06:59:39;26.23;;;14.90;;
33740;SDS011;20065;48.380;10.892;2023-01-28T07:02:26;29.45;;;14.65;;
33740;SDS011;20065;48.380;10.892;2023-01-28T07:05:12;31.50;;;14.35;;
33740;SDS011;20065;48.380;10.892;2023-01-28T07:07:58;30.20;;;15.60;;
33740;SDS011;20065;48.380;10.892;2023-01-28T07:10:44;30.48;;;15.75;;
33740;SDS011;20065;48.380;10.892;2023-01-28T07:13:30;24.00;;;13.65;;
33740;SDS011;20065;48.380;10.892;2023-01-28T07:16:17;25.20;;;14.38;;
33740;SDS011;20065;48.380;10.892;2023-01-28T07:19:03;30.05;;;16.45;;
33740;SDS011;20065;48.380;10.892;2023-01-28T07:21:49;31.17;;;15.45;;
33740;SDS011;20065;48.380;10.892;2023-01-28T07:24:35;25.85;;;14.32;;
33740;SDS011;20065;48.380;10.892;2023-01-28T07:27:21;27.02;;;13.75;;
33740;SDS011;20065;48.380;10.892;2023-01-28T07:30:08;31.13;;;14.88;;
33740;SDS011;20065;48.380;10.892;2023-01-28T07:32:55;29.20;;;14.50;;
33740;SDS011;20065;48.380;10.892;2023-01-28T07:35:42;27.85;;;14.35;;
33740;SDS011;20065;48.380;10.892;2023-01-28T07:38:28;29.83;;;13.52;;
33740;SDS011;20065;48.380;10.892;2023-01-28T07:41:15;25.42;;;13.65;;
33740;SDS011;20065;48.380;10.892;2023-01-28T07:44:01;27.48;;;14.18;;
33740;SDS011;20065;48.380;10.892;2023-01-28T07:46:47;27.67;;;15.60;;
33740;SDS011;20065;48.380;10.892;2023-01-28T07:49:33;26.15;;;13.32;;
33740;SDS011;20065;48.380;10.892;2023-01-28T07:52:19;25.98;;;13.75;;
33740;SDS011;20065;48.380;10.892;2023-01-28T07:55:06;28.27;;;14.20;;
33740;SDS011;20065;48.380;10.892;2023-01-28T07:57:53;24.42;;;13.43;;
33740;SDS011;20065;48.380;10.892;2023-01-28T08:00:41;24.95;;;14.10;;
33740;SDS011;20065;48.380;10.892;2023-01-28T08:03:27;24.67;;;13.75;;
33740;SDS011;20065;48.380;10.892;2023-01-28T08:06:13;26.42;;;13.70;;
33740;SDS011;20065;48.380;10.892;2023-01-28T08:08:59;26.33;;;14.15;;
33740;SDS011;20065;48.380;10.892;2023-01-28T08:11:46;27.35;;;13.68;;
33740;SDS011;20065;48.380;10.892;2023-01-28T08:14:32;30.33;;;13.20;;
33740;SDS011;20065;48.380;10.892;2023-01-28T08:17:18;25.70;;;13.98;;
33740;SDS011;20065;48.380;10.892;2023-01-28T08:20:04;28.05;;;13.60;;
33740;SDS011;20065;48.380;10.892;2023-01-28T08:22:51;26.90;;;14.13;;
33740;SDS011;20065;48.380;10.892;2023-01-28T08:25:37;24.60;;;13.70;;
33740;SDS011;20065;48.380;10.892;2023-01-28T08:28:24;23.48;;;13.98;;
33740;SDS011;20065;48.380;10.892;2023-01-28T08:31:10;24.40;;;13.82;;
33740;SDS011;20065;48.380;10.892;2023-01-28T08:33:56;25.40;;;14.38;;
33740;SDS011;20065;48.380;10.892;2023-01-28T08:36:42;21.35;;;13.05;;
33740;SDS011;20065;48.380;10.892;2023-01-28T08:39:29;31.60;;;13.77;;
33740;SDS011;20065;48.380;10.892;2023-01-28T08:42:15;30.02;;;16.48;;
33740;SDS011;20065;48.380;10.892;2023-01-28T08:45:01;27.63;;;12.77;;
33740;SDS011;20065;48.380;10.892;2023-01-28T08:47:48;23.55;;;13.77;;
33740;SDS011;20065;48.380;10.892;2023-01-28T08:50:38;23.48;;;12.90;;
33740;SDS011;20065;48.380;10.892;2023-01-28T08:53:25;24.27;;;14.35;;
33740;SDS011;20065;48.380;10.892;2023-01-28T08:56:11;24.75;;;13.30;;
33740;SDS011;20065;48.380;10.892;2023-01-28T08:58:58;27.30;;;14.27;;
33740;SDS011;20065;48.380;10.892;2023-01-28T09:01:44;25.02;;;13.57;;
33740;SDS011;20065;48.380;10.892;2023-01-28T09:04:31;25.13;;;14.05;;
33740;SDS011;20065;48.380;10.892;2023-01-28T09:07:17;22.00;;;12.10;;
33740;SDS011;20065;48.380;10.892;2023-01-28T09:10:04;24.63;;;13.43;;
33740;SDS011;20065;48.380;10.892;2023-01-28T09:12:51;24.55;;;13.18;;
33740;SDS011;20065;48.380;10.892;2023-01-28T09:15:37;23.70;;;12.60;;
33740;SDS011;20065;48.380;10.892;2023-01-28T09:18:23;29.10;;;13.50;;
33740;SDS011;20065;48.380;10.892;2023-01-28T09:21:09;28.27;;;15.00;;
33740;SDS011;20065;48.380;10.892;2023-01-28T09:23:55;27.05;;;14.88;;
33740;SDS011;20065;48.380;10.892;2023-01-28T09:26:42;28.50;;;15.35;;
33740;SDS011;20065;48.380;10.892;2023-01-28T09:29:32;26.13;;;14.93;;
33740;SDS011;20065;48.380;10.892;2023-01-28T09:32:19;25.85;;;13.80;;
33740;SDS011;20065;48.380;10.892;2023-01-28T09:35:05;28.52;;;15.40;;
33740;SDS011;20065;48.380;10.892;2023-01-28T09:37:55;25.17;;;14.52;;
33740;SDS011;20065;48.380;10.892;2023-01-28T09:40:43;23.35;;;13.18;;
33740;SDS011;20065;48.380;10.892;2023-01-28T09:43:43;28.08;;;15.27;;
33740;SDS011;20065;48.380;10.892;2023-01-28T09:46:46;27.58;;;15.90;;
33740;SDS011;20065;48.380;10.892;2023-01-28T09:49:34;25.60;;;14.60;;
33740;SDS011;20065;48.380;10.892;2023-01-28T09:52:26;24.05;;;13.27;;
33740;SDS011;20065;48.380;10.892;2023-01-28T09:55:32;23.88;;;13.52;;
33740;SDS011;20065;48.380;10.892;2023-01-28T09:58:20;24.63;;;14.73;;
33740;SDS011;20065;48.380;10.892;2023-01-28T10:10:12;23.00;;;13.13;;
33740;SDS011;20065;48.380;10.892;2023-01-28T10:19:24;21.33;;;12.98;;
33740;SDS011;20065;48.380;10.892;2023-01-28T10:25:16;23.45;;;13.43;;
33740;SDS011;20065;48.380;10.892;2023-01-28T10:28:08;21.92;;;13.48;;
33740;SDS011;20065;48.380;10.892;2023-01-28T10:31:07;22.85;;;13.10;;
33740;SDS011;20065;48.380;10.892;2023-01-28T10:33:57;21.77;;;13.52;;
33740;SDS011;20065;48.380;10.892;2023-01-28T10:36:44;18.70;;;11.57;;
33740;SDS011;20065;48.380;10.892;2023-01-28T10:39:31;20.20;;;10.73;;
33740;SDS011;20065;48.380;10.892;2023-01-28T10:45:23;18.77;;;11.60;;
33740;SDS011;20065;48.380;10.892;2023-01-28T10:48:20;19.85;;;11.23;;
33740;SDS011;20065;48.380;10.892;2023-01-28T10:51:09;17.48;;;10.82;;
33740;SDS011;20065;48.380;10.892;2023-01-28T10:53:55;20.08;;;10.85;;
33740;SDS011;20065;48.380;10.892;2023-01-28T10:56:41;20.75;;;12.57;;
33740;SDS011;20065;48.380;10.892;2023-01-28T11:02:21;16.10;;;11.35;;
33740;SDS011;20065;48.380;10.892;2023-01-28T11:08:12;22.58;;;13.00;;
33740;SDS011;20065;48.380;10.892;2023-01-28T11:10:59;22.88;;;12.55;;
33740;SDS011;20065;48.380;10.892;2023-01-28T11:13:49;17.33;;;11.93;;
33740;SDS011;20065;48.380;10.892;2023-01-28T11:16:38;19.33;;;10.57;;
33740;SDS011;20065;48.380;10.892;2023-01-28T11:19:27;21.30;;;12.85;;
33740;SDS011;20065;48.380;10.892;2023-01-28T11:22:32;20.35;;;11.88;;
33740;SDS011;20065;48.380;10.892;2023-01-28T11:25:35;19.60;;;10.65;;
33740;SDS011;20065;48.380;10.892;2023-01-28T11:28:22;19.30;;;11.73;;
33740;SDS011;20065;48.380;10.892;2023-01-28T11:31:11;20.85;;;12.02;;
33740;SDS011;20065;48.380;10.892;2023-01-28T11:34:00;14.82;;;10.02;;
33740;SDS011;20065;48.380;10.892;2023-01-28T11:37:00;18.98;;;11.18;;
33740;SDS011;20065;48.380;10.892;2023-01-28T11:39:48;19.85;;;11.27;;
33740;SDS011;20065;48.380;10.892;2023-01-28T11:42:45;18.05;;;10.73;;
33740;SDS011;20065;48.380;10.892;2023-01-28T11:45:44;18.08;;;10.75;;
33740;SDS011;20065;48.380;10.892;2023-01-28T11:48:43;18.77;;;10.60;;
33740;SDS011;20065;48.380;10.892;2023-01-28T11:51:40;20.40;;;11.32;;
33740;SDS011;20065;48.380;10.892;2023-01-28T11:54:33;16.95;;;10.25;;
33740;SDS011;20065;48.380;10.892;2023-01-28T11:57:41;19.00;;;10.85;;
33740;SDS011;20065;48.380;10.892;2023-01-28T12:28:56;18.05;;;9.95;;
33740;SDS011;20065;48.380;10.892;2023-01-28T12:38:08;19.13;;;10.60;;
33740;SDS011;20065;48.380;10.892;2023-01-28T12:41:06;20.98;;;11.02;;
33740;SDS011;20065;48.380;10.892;2023-01-28T12:44:01;21.23;;;11.13;;
33740;SDS011;20065;48.380;10.892;2023-01-28T12:47:09;20.10;;;11.48;;
33740;SDS011;20065;48.380;10.892;2023-01-28T12:50:03;19.30;;;10.77;;
33740;SDS011;20065;48.380;10.892;2023-01-28T12:53:48;15.60;;;10.10;;
33740;SDS011;20065;48.380;10.892;2023-01-28T12:56:32;15.80;;;9.10;;
33740;SDS011;20065;48.380;10.892;2023-01-28T13:02:16;19.02;;;11.52;;
33740;SDS011;20065;48.380;10.892;2023-01-28T13:05:10;19.33;;;12.57;;
33740;SDS011;20065;48.380;10.892;2023-01-28T13:08:05;20.15;;;12.35;;
33740;SDS011;20065;48.380;10.892;2023-01-28T13:11:02;24.58;;;14.50;;
33740;SDS011;20065;48.380;10.892;2023-01-28T13:13:50;19.60;;;12.50;;
33740;SDS011;20065;48.380;10.892;2023-01-28T13:16:36;19.23;;;12.07;;
33740;SDS011;20065;48.380;10.892;2023-01-28T13:19:24;25.73;;;13.70;;
33740;SDS011;20065;48.380;10.892;2023-01-28T13:22:26;23.20;;;13.65;;
33740;SDS011;20065;48.380;10.892;2023-01-28T13:25:23;22.48;;;13.35;;
33740;SDS011;20065;48.380;10.892;2023-01-28T13:28:24;21.55;;;13.25;;
33740;SDS011;20065;48.380;10.892;2023-01-28T13:31:11;20.70;;;12.70;;
33740;SDS011;20065;48.380;10.892;2023-01-28T13:34:02;24.48;;;13.65;;
33740;SDS011;20065;48.380;10.892;2023-01-28T13:36:50;23.95;;;13.57;;
33740;SDS011;20065;48.380;10.892;2023-01-28T13:39:37;22.13;;;13.43;;
33740;SDS011;20065;48.380;10.892;2023-01-28T13:42:28;21.75;;;12.00;;
33740;SDS011;20065;48.380;10.892;2023-01-28T13:48:13;22.13;;;13.40;;
33740;SDS011;20065;48.380;10.892;2023-01-28T13:54:22;22.70;;;11.60;;
33740;SDS011;20065;48.380;10.892;2023-01-28T14:07:15;17.15;;;10.63;;
33740;SDS011;20065;48.380;10.892;2023-01-28T14:16:43;24.05;;;11.48;;
33740;SDS011;20065;48.380;10.892;2023-01-28T14:19:54;24.30;;;11.30;;
33740;SDS011;20065;48.380;10.892;2023-01-28T14:22:42;19.33;;;9.77;;
33740;SDS011;20065;48.380;10.892;2023-01-28T14:25:34;16.80;;;10.60;;
33740;SDS011;20065;48.380;10.892;2023-01-28T14:31:55;18.30;;;10.45;;
33740;SDS011;20065;48.380;10.892;2023-01-28T14:34:41;19.00;;;10.65;;
33740;SDS011;20065;48.380;10.892;2023-01-28T14:37:30;19.60;;;11.38;;
33740;SDS011;20065;48.380;10.892;2023-01-28T14:40:17;18.60;;;10.93;;
33740;SDS011;20065;48.380;10.892;2023-01-28T14:43:07;20.70;;;11.32;;
33740;SDS011;20065;48.380;10.892;2023-01-28T14:58:20;26.38;;;13.90;;
33740;SDS011;20065;48.380;10.892;2023-01-28T15:01:24;28.83;;;14.00;;
33740;SDS011;20065;48.380;10.892;2023-01-28T15:04:25;26.48;;;12.68;;
33740;SDS011;20065;48.380;10.892;2023-01-28T15:10:05;24.20;;;13.27;;
33740;SDS011;20065;48.380;10.892;2023-01-28T15:13:06;26.63;;;14.45;;
33740;SDS011;20065;48.380;10.892;2023-01-28T15:15:55;26.75;;;14.57;;
33740;SDS011;20065;48.380;10.892;2023-01-28T15:18:44;28.58;;;15.15;;
33740;SDS011;20065;48.380;10.892;2023-01-28T15:21:32;25.73;;;14.25;;
33740;SDS011;20065;48.380;10.892;2023-01-28T15:24:20;28.95;;;15.43;;
33740;SDS011;20065;48.380;10.892;2023-01-28T15:27:11;30.83;;;15.80;;
33740;SDS011;20065;48.380;10.892;2023-01-28T15:30:16;30.85;;;16.35;;
33740;SDS011;20065;48.380;10.892;2023-01-28T15:33:12;28.88;;;14.88;;
33740;SDS011;20065;48.380;10.892;2023-01-28T15:36:02;34.33;;;16.65;;
33740;SDS011;20065;48.380;10.892;2023-01-28T15:38:55;27.88;;;14.95;;
33740;SDS011;20065;48.380;10.892;2023-01-28T15:41:42;28.08;;;15.57;;
33740;SDS011;20065;48.380;10.892;2023-01-28T15:44:35;28.50;;;15.85;;
33740;SDS011;20065;48.380;10.892;2023-01-28T15:47:28;29.35;;;16.17;;
33740;SDS011;20065;48.380;10.892;2023-01-28T15:50:21;31.35;;;14.93;;
33740;SDS011;20065;48.380;10.892;2023-01-28T15:53:11;31.48;;;16.67;;
33740;SDS011;20065;48.380;10.892;2023-01-28T15:56:05;31.40;;;16.67;;
33740;SDS011;20065;48.380;10.892;2023-01-28T16:02:21;31.92;;;18.73;;
33740;SDS011;20065;48.380;10.892;2023-01-28T16:05:23;35.42;;;17.10;;
33740;SDS011;20065;48.380;10.892;2023-01-28T16:08:14;31.25;;;16.58;;
33740;SDS011;20065;48.380;10.892;2023-01-28T16:11:11;39.17;;;19.95;;
33740;SDS011;20065;48.380;10.892;2023-01-28T16:14:05;37.92;;;18.75;;
33740;SDS011;20065;48.380;10.892;2023-01-28T16:17:00;35.25;;;18.63;;
33740;SDS011;20065;48.380;10.892;2023-01-28T16:19:55;37.03;;;19.80;;
33740;SDS011;20065;48.380;10.892;2023-01-28T16:22:44;39.10;;;19.13;;
33740;SDS011;20065;48.380;10.892;2023-01-28T16:25:31;37.25;;;20.58;;
33740;SDS011;20065;48.380;10.892;2023-01-28T16:28:21;37.67;;;18.65;;
33740;SDS011;20065;48.380;10.892;2023-01-28T16:31:08;39.45;;;20.10;;
33740;SDS011;20065;48.380;10.892;2023-01-28T16:33:55;37.50;;;18.55;;
33740;SDS011;20065;48.380;10.892;2023-01-28T16:36:41;42.10;;;21.80;;
33740;SDS011;20065;48.380;10.892;2023-01-28T16:39:27;40.33;;;18.77;;
33740;SDS011;20065;48.380;10.892;2023-01-28T16:42:14;34.67;;;18.45;;
33740;SDS011;20065;48.380;10.892;2023-01-28T16:48:34;40.53;;;20.30;;
33740;SDS011;20065;48.380;10.892;2023-01-28T16:51:21;43.13;;;22.00;;
33740;SDS011;20065;48.380;10.892;2023-01-28T16:54:08;37.22;;;19.63;;
33740;SDS011;20065;48.380;10.892;2023-01-28T16:56:58;35.50;;;18.85;;
33740;SDS011;20065;48.380;10.892;2023-01-28T16:59:55;37.85;;;21.05;;
33740;SDS011;20065;48.380;10.892;2023-01-28T17:02:50;41.78;;;20.90;;
33740;SDS011;20065;48.380;10.892;2023-01-28T17:05:37;41.55;;;21.33;;
33740;SDS011;20065;48.380;10.892;2023-01-28T17:08:23;45.53;;;21.45;;
33740;SDS011;20065;48.380;10.892;2023-01-28T17:11:10;43.80;;;20.63;;
33740;SDS011;20065;48.380;10.892;2023-01-28T17:14:00;37.70;;;20.10;;
33740;SDS011;20065;48.380;10.892;2023-01-28T17:16:49;39.75;;;21.10;;
33740;SDS011;20065;48.380;10.892;2023-01-28T17:19:37;43.45;;;22.27;;
33740;SDS011;20065;48.380;10.892;2023-01-28T17:22:26;43.30;;;19.98;;
33740;SDS011;20065;48.380;10.892;2023-01-28T17:25:13;43.85;;;21.88;;
33740;SDS011;20065;48.380;10.892;2023-01-28T17:28:00;41.15;;;18.55;;
33740;SDS011;20065;48.380;10.892;2023-01-28T17:30:46;42.08;;;20.17;;
33740;SDS011;20065;48.380;10.892;2023-01-28T17:33:33;49.72;;;22.65;;
33740;SDS011;20065;48.380;10.892;2023-01-28T17:36:19;36.67;;;20.10;;
33740;SDS011;20065;48.380;10.892;2023-01-28T17:39:06;44.75;;;21.77;;
33740;SDS011;20065;48.380;10.892;2023-01-28T17:41:52;41.95;;;21.67;;
33740;SDS011;20065;48.380;10.892;2023-01-28T17:44:38;46.95;;;20.52;;
33740;SDS011;20065;48.380;10.892;2023-01-28T17:47:24;41.60;;;21.63;;
33740;SDS011;20065;48.380;10.892;2023-01-28T17:50:10;40.45;;;20.67;;
33740;SDS011;20065;48.380;10.892;2023-01-28T17:52:57;34.58;;;19.45;;
33740;SDS011;20065;48.380;10.892;2023-01-28T17:55:44;37.13;;;20.65;;
33740;SDS011;20065;48.380;10.892;2023-01-28T17:58:31;41.13;;;18.90;;
33740;SDS011;20065;48.380;10.892;2023-01-28T18:01:17;38.40;;;19.13;;
33740;SDS011;20065;48.380;10.892;2023-01-28T18:04:04;44.75;;;20.85;;
33740;SDS011;20065;48.380;10.892;2023-01-28T18:06:51;39.85;;;21.48;;
33740;SDS011;20065;48.380;10.892;2023-01-28T18:12:24;39.58;;;20.92;;
33740;SDS011;20065;48.380;10.892;2023-01-28T18:15:11;45.47;;;21.98;;
33740;SDS011;20065;48.380;10.892;2023-01-28T18:17:57;49.38;;;22.35;;
33740;SDS011;20065;48.380;10.892;2023-01-28T18:20:43;38.85;;;19.20;;
33740;SDS011;20065;48.380;10.892;2023-01-28T18:23:30;38.00;;;21.60;;
33740;SDS011;20065;48.380;10.892;2023-01-28T18:26:17;43.15;;;22.77;;
33740;SDS011;20065;48.380;10.892;2023-01-28T18:29:03;41.13;;;21.23;;
33740;SDS011;20065;48.380;10.892;2023-01-28T18:31:52;45.25;;;22.08;;
33740;SDS011;20065;48.380;10.892;2023-01-28T18:34:40;42.33;;;21.35;;
33740;SDS011;20065;48.380;10.892;2023-01-28T18:37:27;39.38;;;20.00;;
33740;SDS011;20065;48.380;10.892;2023-01-28T18:40:13;40.67;;;21.40;;
33740;SDS011;20065;48.380;10.892;2023-01-28T18:43:00;39.65;;;20.77;;
33740;SDS011;20065;48.380;10.892;2023-01-28T18:45:46;36.42;;;19.90;;